Time;durP1;ratioP1;P1;durP2;ratioP2;P2;SDS_P1;SDS_P2;PMS_P1;PMS_P2;Temp;Humidity;BMP_temperature;BMP_pressure;BME280_temperature;BME280_humidity;BME280_pressure;Samples;Min_cycle;Max_cycle;Signal;HPM_P1;HPM_P2
2021/03/06 00:02:24;;;;;;;3.88;3.03;;;0.10;68.60;;;;;;5036520;28;20303;-65
2021/03/06 00:04:50;;;;;;;5.22;3.10;;;0.00;68.50;;;;;;5035310;28;20028;-63
2021/03/06 00:07:15;;;;;;;6.53;3.33;;;0.00;68.60;;;;;;5036244;28;20029;-65
2021/03/06 00:09:41;;;;;;;5.03;3.03;;;0.00;68.60;;;;;;5036161;28;20049;-65
2021/03/06 00:12:07;;;;;;;5.70;3.85;;;0.00;68.50;;;;;;5036961;28;20025;-65
2021/03/06 00:14:33;;;;;;;7.15;3.22;;;0.00;68.60;;;;;;5034548;28;20108;-66
2021/03/06 00:16:59;;;;;;;5.03;2.85;;;0.00;68.60;;;;;;5034198;28;20028;-66
2021/03/06 00:19:26;;;;;;;5.50;3.20;;;0.00;68.50;;;;;;5036062;28;20393;-65
2021/03/06 00:21:51;;;;;;;4.35;3.08;;;0.00;68.30;;;;;;5030129;28;20124;-68
2021/03/06 00:24:17;;;;;;;3.63;2.60;;;0.00;68.40;;;;;;5029809;28;20429;-66
2021/03/06 00:26:43;;;;;;;4.95;3.10;;;0.00;68.40;;;;;;5036230;28;20519;-66
2021/03/06 00:29:08;;;;;;;6.25;3.15;;;0.00;68.30;;;;;;5035147;28;20219;-65
2021/03/06 00:31:38;;;;;;;4.28;2.75;;;0.00;68.30;;;;;;5035074;28;20061;-66
2021/03/06 00:34:04;;;;;;;5.00;2.88;;;0.00;68.40;;;;;;5034081;28;20098;-66
2021/03/06 00:36:30;;;;;;;5.93;2.72;;;-0.10;68.30;;;;;;5035667;28;20029;-66
2021/03/06 00:38:56;;;;;;;5.32;2.90;;;-0.10;68.40;;;;;;5034514;28;20033;-66
2021/03/06 00:41:22;;;;;;;8.70;3.30;;;-0.10;68.40;;;;;;5034494;28;20028;-66
2021/03/06 00:43:48;;;;;;;5.68;3.30;;;-0.10;68.40;;;;;;5035088;28;20425;-63
2021/03/06 00:46:14;;;;;;;5.22;2.85;;;0.00;68.40;;;;;;5034320;28;20040;-65
2021/03/06 00:48:39;;;;;;;3.63;2.85;;;-0.10;68.20;;;;;;5035584;28;20020;-66
2021/03/06 00:51:06;;;;;;;6.10;3.05;;;-0.10;68.20;;;;;;5052077;28;20028;-66
2021/03/06 00:53:36;;;;;;;4.80;2.90;;;-0.10;68.30;;;;;;5035028;28;20021;-66
2021/03/06 00:56:03;;;;;;;5.90;2.83;;;-0.10;68.30;;;;;;5034573;28;20033;-65
2021/03/06 00:58:28;;;;;;;7.25;3.00;;;-0.20;68.30;;;;;;5035246;28;20033;-66
2021/03/06 01:00:54;;;;;;;4.90;3.17;;;-0.20;68.40;;;;;;5033965;28;20051;-66
2021/03/06 01:03:20;;;;;;;3.78;2.90;;;-0.20;68.50;;;;;;5034203;28;20025;-63
2021/03/06 01:05:46;;;;;;;5.72;3.08;;;-0.10;68.50;;;;;;5033973;28;20060;-66
2021/03/06 01:08:12;;;;;;;6.53;2.92;;;-0.10;68.30;;;;;;5034708;28;20025;-65
2021/03/06 01:10:40;;;;;;;4.45;2.72;;;-0.20;68.30;;;;;;5034449;28;20063;-64
2021/03/06 01:13:07;;;;;;;5.43;3.08;;;-0.20;68.30;;;;;;5034208;28;20033;-65
2021/03/06 01:15:33;;;;;;;6.38;2.92;;;-0.20;68.30;;;;;;5034184;28;20032;-65
2021/03/06 01:17:59;;;;;;;4.40;2.88;;;-0.20;68.30;;;;;;5034316;28;20170;-66
2021/03/06 01:20:25;;;;;;;6.15;2.83;;;-0.20;68.20;;;;;;5034371;28;20040;-65
2021/03/06 01:22:51;;;;;;;7.65;3.38;;;-0.20;68.40;;;;;;5031510;28;20031;-65
2021/03/06 01:25:17;;;;;;;4.55;2.80;;;-0.20;68.30;;;;;;5021863;28;20037;-65
2021/03/06 01:27:43;;;;;;;7.35;3.00;;;-0.30;68.20;;;;;;5020348;28;20028;-65
2021/03/06 01:30:10;;;;;;;3.80;2.65;;;-0.40;68.30;;;;;;5033463;28;20025;-65
2021/03/06 01:32:36;;;;;;;4.00;2.72;;;-0.40;68.40;;;;;;5032969;28;20013;-65
2021/03/06 01:35:07;;;;;;;5.30;2.72;;;-0.40;68.50;;;;;;5033261;28;20537;-65
2021/03/06 01:37:33;;;;;;;5.50;2.90;;;-0.40;68.50;;;;;;5032896;28;20428;-65
2021/03/06 01:39:58;;;;;;;5.05;3.00;;;-0.40;68.60;;;;;;5033482;28;20071;-65
2021/03/06 01:42:24;;;;;;;4.05;2.65;;;-0.40;68.50;;;;;;5033195;28;20457;-65
2021/03/06 01:44:51;;;;;;;4.47;2.85;;;-0.40;68.40;;;;;;5032186;28;20056;-65
2021/03/06 01:47:17;;;;;;;5.53;3.17;;;-0.40;68.50;;;;;;5032769;28;20048;-64
2021/03/06 01:49:43;;;;;;;4.15;2.97;;;-0.50;68.40;;;;;;5032685;28;20130;-66
2021/03/06 01:52:09;;;;;;;6.13;3.20;;;-0.50;68.50;;;;;;5033089;28;20112;-66
2021/03/06 01:54:36;;;;;;;4.50;2.90;;;-0.60;68.50;;;;;;5032250;28;20067;-64
2021/03/06 01:57:02;;;;;;;5.63;3.17;;;-0.60;68.60;;;;;;5032439;28;20029;-66
2021/03/06 01:59:28;;;;;;;4.63;3.10;;;-0.60;68.60;;;;;;5032294;28;20031;-66
2021/03/06 02:01:54;;;;;;;4.85;3.22;;;-0.60;68.60;;;;;;5050009;28;20029;-65
2021/03/06 02:04:20;;;;;;;4.65;3.33;;;-0.60;68.70;;;;;;5031598;28;20032;-65
2021/03/06 02:06:45;;;;;;;4.47;2.90;;;-0.60;68.60;;;;;;5035920;28;20056;-64
2021/03/06 02:09:11;;;;;;;3.90;2.72;;;-0.60;68.60;;;;;;5035975;28;20071;-64
2021/03/06 02:11:41;;;;;;;8.13;3.25;;;-0.70;68.60;;;;;;5036565;28;20035;-65
2021/03/06 02:14:49;;;;;;;5.80;3.45;;;-0.70;68.80;;;;;;5053075;28;20021;-65
2021/03/06 02:17:36;;;;;;;5.10;3.00;;;-0.70;68.90;;;;;;5035745;28;20048;-65
2021/03/06 02:20:39;;;;;;;5.93;3.00;;;-0.70;68.60;;;;;;5036518;28;20033;-64
2021/03/06 02:23:10;;;;;;;4.45;3.10;;;-0.70;68.60;;;;;;5029655;28;20039;-65
2021/03/06 02:26:00;;;;;;;4.70;3.17;;;-0.70;68.50;;;;;;5022211;28;20101;-65
2021/03/06 02:28:49;;;;;;;8.73;3.28;;;-0.80;68.40;;;;;;5033702;28;20035;-65
2021/03/06 02:31:15;;;;;;;7.25;3.00;;;-0.80;68.50;;;;;;5035797;28;20037;-65
2021/03/06 02:33:49;;;;;;;7.43;3.42;;;-0.90;68.40;;;;;;5035688;28;20334;-65
2021/03/06 02:36:20;;;;;;;6.65;3.45;;;-0.90;68.60;;;;;;5019011;28;20029;-67
2021/03/06 02:38:48;;;;;;;5.80;2.90;;;-0.90;68.70;;;;;;5035814;28;20048;-64
2021/03/06 02:41:14;;;;;;;5.43;2.80;;;-0.90;68.70;;;;;;5035487;28;20032;-66
2021/03/06 02:43:41;;;;;;;7.20;3.65;;;-1.00;68.60;;;;;;5035591;28;20029;-65
2021/03/06 02:46:08;;;;;;;5.70;3.17;;;-1.00;68.60;;;;;;5034776;28;20083;-65
2021/03/06 02:48:34;;;;;;;4.45;2.92;;;-1.00;68.70;;;;;;5051061;28;20021;-65
2021/03/06 02:50:59;;;;;;;4.53;3.15;;;-1.10;68.60;;;;;;5034577;28;20032;-65
2021/03/06 02:53:25;;;;;;;5.70;3.20;;;-1.10;68.70;;;;;;5035635;28;20075;-65
2021/03/06 02:55:51;;;;;;;3.00;2.63;;;-1.10;68.90;;;;;;5034967;28;20079;-65
2021/03/06 02:58:24;;;;;;;6.25;3.13;;;-1.10;68.90;;;;;;5035444;28;20031;-65
2021/03/06 03:01:04;;;;;;;4.80;3.00;;;-1.10;68.90;;;;;;5032224;28;20486;-65
2021/03/06 03:03:52;;;;;;;6.47;3.13;;;-1.10;68.90;;;;;;5033423;28;20036;-65
2021/03/06 03:06:28;;;;;;;5.00;2.92;;;-1.10;68.90;;;;;;5034621;28;20029;-65
2021/03/06 03:09:07;;;;;;;4.70;3.03;;;-1.10;68.80;;;;;;5035625;28;20029;-65
2021/03/06 03:11:55;;;;;;;4.93;2.78;;;-1.10;68.70;;;;;;5035469;28;20064;-66
2021/03/06 03:14:39;;;;;;;3.88;2.85;;;-1.10;68.70;;;;;;5025771;28;20021;-66
2021/03/06 03:17:21;;;;;;;3.85;3.08;;;-1.20;68.70;;;;;;5035105;28;20460;-65
2021/03/06 03:20:09;;;;;;;4.45;2.88;;;-1.20;68.70;;;;;;5035056;28;20492;-66
2021/03/06 03:22:41;;;;;;;4.28;2.67;;;-1.20;68.70;;;;;;5033476;28;20080;-66
2021/03/06 03:25:10;;;;;;;7.68;3.58;;;-1.30;68.70;;;;;;5034509;28;20032;-66
2021/03/06 03:27:38;;;;;;;8.50;4.07;;;-1.30;68.80;;;;;;5021994;28;20087;-66
2021/03/06 03:30:11;;;;;;;4.45;3.03;;;-1.30;68.80;;;;;;5034624;28;20032;-66
2021/03/06 03:32:36;;;;;;;;;;;-1.30;68.80;;;;;;5052646;28;20096;-65
2021/03/06 03:35:04;;;;;;;3.80;2.92;;;-1.30;68.70;;;;;;5034537;28;20055;-67
2021/03/06 03:37:31;;;;;;;5.22;3.10;;;-1.30;68.60;;;;;;5033752;28;20102;-66
2021/03/06 03:39:57;;;;;;;4.35;3.20;;;-1.40;68.80;;;;;;5034946;28;20075;-65
2021/03/06 03:42:24;;;;;;;4.57;2.92;;;-1.40;68.80;;;;;;5034548;28;20108;-65
2021/03/06 03:44:50;;;;;;;3.40;3.05;;;-1.40;68.80;;;;;;5034173;28;20393;-66
2021/03/06 03:47:17;;;;;;;3.53;2.80;;;-1.40;68.80;;;;;;5034368;28;20493;-66
2021/03/06 03:49:43;;;;;;;4.00;2.70;;;-1.40;68.80;;;;;;5034545;28;20190;-65
2021/03/06 03:52:10;;;;;;;5.10;2.85;;;-1.40;68.80;;;;;;5033629;28;20115;-65
2021/03/06 03:54:35;;;;;;;5.53;2.97;;;-1.40;68.90;;;;;;5033438;28;20029;-65
2021/03/06 03:57:03;;;;;;;7.20;2.95;;;-1.40;68.90;;;;;;5034709;28;20119;-65
2021/03/06 03:59:28;;;;;;;5.20;3.15;;;-1.40;68.90;;;;;;5052283;28;20044;-65
2021/03/06 04:01:54;;;;;;;4.57;2.90;;;-1.40;69.00;;;;;;5034009;28;20033;-66
2021/03/06 04:04:26;;;;;;;5.18;2.80;;;-1.40;68.80;;;;;;5033289;28;20043;-66
2021/03/06 04:06:52;;;;;;;4.53;2.85;;;-1.40;68.90;;;;;;5034357;28;20120;-66
2021/03/06 04:09:18;;;;;;;3.47;2.58;;;-1.40;68.80;;;;;;5033824;28;20036;-67
2021/03/06 04:11:44;;;;;;;5.93;2.90;;;-1.40;68.90;;;;;;5034159;28;20121;-66
2021/03/06 04:14:09;;;;;;;7.60;3.03;;;-1.40;68.90;;;;;;5033586;28;20060;-65
2021/03/06 04:16:35;;;;;;;5.05;2.50;;;-1.40;68.90;;;;;;5033753;28;20033;-66
2021/03/06 04:19:01;;;;;;;5.57;2.80;;;-1.40;69.00;;;;;;5034252;28;20025;-67
2021/03/06 04:21:26;;;;;;;6.43;2.80;;;-1.40;68.90;;;;;;5034285;28;20029;-67
2021/03/06 04:23:52;;;;;;;3.67;2.60;;;-1.40;68.90;;;;;;5045130;28;20104;-64
2021/03/06 04:26:18;;;;;;;9.80;4.18;;;-1.40;68.90;;;;;;5033865;28;20049;-66
2021/03/06 04:28:43;;;;;;;3.05;2.72;;;-1.40;68.80;;;;;;5033126;28;20060;-66
2021/03/06 04:31:09;;;;;;;4.32;2.80;;;-1.40;69.40;;;;;;5027688;28;20036;-67
2021/03/06 04:33:35;;;;;;;5.47;2.60;;;-1.40;68.90;;;;;;5047613;23;20029;-88
2021/03/06 04:36:01;;;;;;;4.35;2.88;;;-1.40;68.90;;;;;;5014081;28;20034;-89
2021/03/06 04:38:26;;;;;;;6.40;3.05;;;-1.40;68.90;;;;;;5027884;28;20664;-88
2021/03/06 04:40:52;;;;;;;3.83;2.97;;;-1.40;68.90;;;;;;5032098;28;20087;-89
2021/03/06 04:43:18;;;;;;;3.80;2.63;;;-1.40;68.90;;;;;;5031644;28;20029;-89
2021/03/06 04:45:43;;;;;;;9.27;2.85;;;-1.40;69.00;;;;;;5031742;28;20053;-88
2021/03/06 04:48:09;;;;;;;3.28;2.63;;;-1.40;69.00;;;;;;5031571;28;20104;-88
2021/03/06 04:50:35;;;;;;;3.78;2.28;;;-1.50;68.90;;;;;;5031968;28;20021;-88
2021/03/06 04:53:00;;;;;;;7.00;2.70;;;-1.50;68.90;;;;;;5031344;28;20025;-89
2021/03/06 04:55:26;;;;;;;3.85;2.45;;;-1.50;68.90;;;;;;5031316;28;20056;-88
2021/03/06 04:57:51;;;;;;;5.55;2.90;;;-1.50;68.80;;;;;;5032685;28;20026;-89
2021/03/06 05:00:17;;;;;;;4.47;2.78;;;-1.60;68.80;;;;;;5031963;28;20072;-88
2021/03/06 05:02:43;;;;;;;7.82;2.83;;;-1.60;68.90;;;;;;5031676;28;20029;-89
2021/03/06 05:05:09;;;;;;;4.78;2.58;;;-1.60;68.90;;;;;;5031584;28;20032;-89
2021/03/06 05:07:35;;;;;;;6.18;2.80;;;-1.60;68.90;;;;;;5031709;28;20141;-89
2021/03/06 05:10:02;;;;;;;3.42;2.70;;;-1.70;68.80;;;;;;5026278;28;20072;-88
2021/03/06 05:12:27;;;;;;;3.05;2.35;;;-1.70;68.80;;;;;;5029619;28;20029;-89
2021/03/06 05:14:53;;;;;;;3.28;2.55;;;-1.70;68.90;;;;;;5030638;28;20018;-89
2021/03/06 05:17:18;;;;;;;3.40;2.55;;;-1.70;68.90;;;;;;5031575;28;20124;-89
2021/03/06 05:19:44;;;;;;;4.50;2.95;;;-1.70;68.90;;;;;;5032095;28;20487;-89
2021/03/06 05:22:09;;;;;;;3.30;2.75;;;-1.70;69.00;;;;;;5030373;28;20458;-88
2021/03/06 05:24:35;;;;;;;9.77;2.70;;;-1.80;69.00;;;;;;5027622;28;20090;-88
2021/03/06 05:27:03;;;;;;;3.90;2.80;;;-1.70;69.10;;;;;;5032696;28;20048;-89
2021/03/06 05:29:30;;;;;;;4.63;2.60;;;-1.70;69.10;;;;;;5031595;28;20018;-89
2021/03/06 05:31:56;;;;;;;4.13;2.95;;;-1.70;69.00;;;;;;5031500;28;20030;-89
2021/03/06 05:34:22;;;;;;;7.32;2.90;;;-1.70;69.00;;;;;;5034190;28;20441;-89
2021/03/06 05:36:49;;;;;;;3.15;2.17;;;-1.70;69.00;;;;;;5016070;28;20022;-89
2021/03/06 05:39:15;;;;;;;7.20;2.40;;;-1.70;68.80;;;;;;5025986;28;20037;-88
2021/03/06 05:41:41;;;;;;;4.53;2.17;;;-1.70;68.80;;;;;;5035332;28;20026;-88
2021/03/06 05:44:06;;;;;;;4.78;2.92;;;-1.80;68.80;;;;;;5035173;28;20032;-89
2021/03/06 05:46:32;;;;;;;3.28;2.55;;;-1.80;68.80;;;;;;5035129;28;20029;-89
2021/03/06 05:48:57;;;;;;;4.13;2.70;;;-1.80;68.80;;;;;;5035502;28;20036;-90
2021/03/06 05:51:26;;;;;;;4.55;2.83;;;-1.80;68.90;;;;;;5035022;28;20025;-89
2021/03/06 05:53:53;;;;;;;3.95;2.95;;;-1.80;68.90;;;;;;5035041;28;20036;-88
2021/03/06 05:56:20;;;;;;;3.83;2.58;;;-1.80;69.00;;;;;;5044219;28;20040;-89
2021/03/06 05:58:50;;;;;;;6.68;2.90;;;-1.80;68.80;;;;;;5038947;28;20113;-88
2021/03/06 06:01:16;;;;;;;3.58;2.40;;;-1.80;68.90;;;;;;5036446;28;20032;-89
2021/03/06 06:03:43;;;;;;;5.90;2.88;;;-1.80;68.80;;;;;;5036516;28;20030;-90
2021/03/06 06:06:09;;;;;;;4.00;2.60;;;-1.80;68.70;;;;;;5029126;28;20399;-89
2021/03/06 06:08:36;;;;;;;3.13;2.63;;;-1.90;68.60;;;;;;5031357;28;20093;-89
2021/03/06 06:11:02;;;;;;;3.53;2.50;;;-1.90;68.60;;;;;;5029673;28;20018;-88
2021/03/06 06:13:28;;;;;;;5.85;2.60;;;-1.90;68.80;;;;;;5030212;28;20017;-89
2021/03/06 06:15:55;;;;;;;3.53;2.50;;;-1.90;68.80;;;;;;5037435;28;20451;-88
2021/03/06 06:18:21;;;;;;;7.15;2.67;;;-1.90;68.80;;;;;;5035046;28;20029;-88
2021/03/06 06:20:47;;;;;;;4.32;2.80;;;-1.90;68.80;;;;;;5033206;28;20128;-88
2021/03/06 06:23:17;;;;;;;3.33;2.80;;;-1.90;68.90;;;;;;5030645;28;20029;-88
2021/03/06 06:25:45;;;;;;;4.85;2.90;;;-1.80;69.10;;;;;;5033193;28;20056;-89
2021/03/06 06:28:10;;;;;;;8.00;2.95;;;-1.80;68.80;;;;;;5034307;28;20037;-88
2021/03/06 06:30:36;;;;;;;3.42;2.78;;;-1.80;68.70;;;;;;5035802;28;20498;-89
2021/03/06 06:33:02;;;;;;;3.95;2.88;;;-1.70;68.80;;;;;;5035348;28;20032;-89
2021/03/06 06:35:28;;;;;;;5.10;2.90;;;-1.70;68.70;;;;;;5034200;28;20029;-89
2021/03/06 06:38:02;;;;;;;9.73;3.03;;;-1.60;68.50;;;;;;5034676;28;20368;-89
2021/03/06 06:40:30;;;;;;;3.63;2.65;;;-1.50;68.30;;;;;;5034285;28;20048;-89
2021/03/06 06:42:56;;;;;;;5.18;3.00;;;-1.30;68.00;;;;;;5034663;28;20035;-90
2021/03/06 06:45:23;;;;;;;3.72;2.90;;;-1.00;67.50;;;;;;5033091;28;20025;-89
2021/03/06 06:47:51;;;;;;;5.38;2.75;;;-0.60;67.30;;;;;;5031058;28;20498;-89
2021/03/06 06:50:33;;;;;;;3.75;2.47;;;-0.30;67.10;;;;;;5026699;28;20072;-88
2021/03/06 06:52:59;;;;;;;4.18;2.72;;;0.00;66.70;;;;;;5033786;28;20013;-88
2021/03/06 06:55:43;;;;;;;3.25;2.60;;;0.20;66.40;;;;;;5033738;28;20029;-89
2021/03/06 06:58:09;;;;;;;4.55;2.92;;;0.60;66.20;;;;;;5027670;28;20099;-88
2021/03/06 07:00:35;;;;;;;5.05;2.60;;;0.80;66.50;;;;;;5034227;28;20018;-88
2021/03/06 07:03:03;;;;;;;4.18;2.95;;;1.00;66.40;;;;;;5034123;28;20392;-88
2021/03/06 07:05:34;;;;;;;4.32;2.75;;;1.30;65.90;;;;;;5034250;28;20026;-88
2021/03/06 07:08:08;;;;;;;5.93;3.10;;;1.40;65.80;;;;;;5034081;28;20092;-89
2021/03/06 07:10:41;;;;;;;5.57;2.95;;;1.50;65.60;;;;;;5034321;28;20056;-89
2021/03/06 07:13:10;;;;;;;;;;;1.80;65.40;;;;;;5034533;28;20065;-90
2021/03/06 07:15:39;;;;;;;5.70;2.80;;;2.00;65.50;;;;;;5033878;28;20015;-89
2021/03/06 07:18:16;;;;;;;3.00;2.70;;;2.20;65.50;;;;;;5034112;28;20021;-89
2021/03/06 07:20:42;;;;;;;4.32;2.90;;;2.30;65.30;;;;;;5034077;28;20033;-89
2021/03/06 07:23:22;;;;;;;7.50;3.15;;;2.30;65.00;;;;;;5035010;28;20029;-89
2021/03/06 07:25:53;;;;;;;4.30;2.83;;;2.40;64.70;;;;;;5033784;28;20400;-89
2021/03/06 07:28:19;;;;;;;3.38;2.80;;;2.70;64.50;;;;;;5033551;28;20059;-90
2021/03/06 07:30:45;;;;;;;5.07;2.63;;;3.00;64.40;;;;;;5033488;28;20052;-90
2021/03/06 07:33:13;;;;;;;5.80;2.80;;;3.10;64.20;;;;;;5034020;28;20192;-89
2021/03/06 07:35:41;;;;;;;3.17;2.88;;;3.20;64.20;;;;;;5033726;28;20183;-89
2021/03/06 07:38:10;;;;;;;6.30;2.92;;;3.30;64.00;;;;;;5034548;28;20025;-89
2021/03/06 07:40:46;;;;;;;3.83;3.03;;;3.80;63.40;;;;;;5034569;28;20100;-89
2021/03/06 07:43:14;;;;;;;3.13;2.88;;;4.10;62.70;;;;;;5033230;28;20026;-89
2021/03/06 07:45:50;;;;;;;3.78;3.47;;;4.40;62.20;;;;;;5034811;28;20025;-90
2021/03/06 07:48:19;;;;;;;3.95;3.60;;;4.70;61.80;;;;;;5033104;28;20114;-89
2021/03/06 07:50:52;;;;;;;3.00;2.80;;;5.00;61.60;;;;;;5033872;28;20108;-89
2021/03/06 07:53:19;;;;;;;4.25;3.63;;;5.20;61.40;;;;;;5034786;28;20029;-89
2021/03/06 07:55:46;;;;;;;5.18;3.95;;;5.50;61.10;;;;;;5033689;28;20087;-89
2021/03/06 07:58:12;;;;;;;4.00;3.70;;;5.90;60.40;;;;;;5037048;28;20040;-89
2021/03/06 08:00:53;;;;;;;4.88;3.42;;;6.20;59.70;;;;;;5034662;28;20045;-89
2021/03/06 08:03:29;;;;;;;4.13;3.83;;;6.50;59.00;;;;;;5033181;28;20089;-88
2021/03/06 08:06:18;;;;;;;3.92;3.22;;;6.90;58.70;;;;;;5033305;28;20091;-88
2021/03/06 08:08:47;;;;;;;5.53;3.58;;;6.90;58.40;;;;;;5033773;28;20030;-88
2021/03/06 08:11:16;;;;;;;4.32;3.47;;;6.80;58.30;;;;;;5032829;28;20104;-89
2021/03/06 08:13:46;;;;;;;4.57;3.60;;;6.70;58.80;;;;;;5032624;28;20026;-89
2021/03/06 08:19:01;;;;;;;3.75;3.45;;;7.50;57.60;;;;;;5036839;28;20549;-89
2021/03/06 08:21:32;;;;;;;3.10;2.90;;;7.90;56.70;;;;;;5035778;28;20079;-89
2021/03/06 08:26:42;;;;;;;5.78;3.33;;;8.60;55.20;;;;;;5034467;28;20025;-89
2021/03/06 08:29:23;;;;;;;4.32;2.40;;;8.70;54.40;;;;;;5033362;28;20482;-89
2021/03/06 08:32:07;;;;;;;4.70;3.05;;;8.70;53.90;;;;;;5033401;28;20124;-90
2021/03/06 08:35:05;;;;;;;4.25;2.90;;;8.50;53.50;;;;;;5022042;28;20026;-91
2021/03/06 08:37:31;;;;;;;2.15;1.75;;;8.10;53.20;;;;;;5035419;28;20029;-92
2021/03/06 08:40:11;;;;;;;4.35;3.20;;;7.70;53.60;;;;;;5041133;28;20033;-91
2021/03/06 08:42:54;;;;;;;3.47;2.28;;;7.30;54.10;;;;;;5035361;28;20089;-90
2021/03/06 08:45:21;;;;;;;3.72;2.10;;;7.20;54.90;;;;;;5032879;28;20021;-92
2021/03/06 08:47:58;;;;;;;4.22;2.10;;;7.10;54.90;;;;;;5035414;28;20051;-89
2021/03/06 08:50:27;;;;;;;2.50;2.00;;;6.90;53.90;;;;;;5036501;28;20025;-91
2021/03/06 08:52:58;;;;;;;6.32;2.15;;;6.80;54.20;;;;;;5034015;28;20017;-89
2021/03/06 08:55:27;;;;;;;1.70;1.60;;;6.70;54.00;;;;;;5033223;28;20022;-89
2021/03/06 08:57:52;;;;;;;3.35;1.73;;;6.70;54.20;;;;;;5035390;28;20030;-91
2021/03/06 09:00:31;;;;;;;2.65;1.73;;;6.60;54.10;;;;;;5037417;28;20518;-91
2021/03/06 09:02:57;;;;;;;2.97;2.03;;;6.60;53.90;;;;;;5037404;28;20021;-91
2021/03/06 09:08:56;;;;;;;5.07;1.95;;;6.70;54.00;;;;;;5038245;28;20029;-89
2021/03/06 09:11:24;;;;;;;3.70;1.70;;;6.60;53.00;;;;;;5021812;28;20491;-91
2021/03/06 09:13:49;;;;;;;2.53;1.83;;;6.70;53.80;;;;;;5036721;28;20606;-91
2021/03/06 09:16:16;;;;;;;5.47;1.67;;;6.70;53.80;;;;;;5036316;28;20038;-91
2021/03/06 09:18:42;;;;;;;1.85;1.65;;;6.80;53.60;;;;;;5036546;28;20034;-91
2021/03/06 09:21:23;;;;;;;4.75;2.00;;;6.90;53.40;;;;;;5036427;28;20074;-91
2021/03/06 09:23:55;;;;;;;2.13;1.75;;;7.00;53.80;;;;;;5034507;28;20579;-91
2021/03/06 09:26:26;;;;;;;2.05;1.80;;;7.10;53.30;;;;;;5034564;28;20036;-92
2021/03/06 09:28:59;;;;;;;1.83;1.58;;;7.20;52.90;;;;;;5037839;28;20175;-91
2021/03/06 09:31:31;;;;;;;2.35;1.90;;;7.10;52.70;;;;;;5019609;28;20026;-91
2021/03/06 09:33:58;;;;;;;2.55;1.73;;;7.30;52.80;;;;;;5037082;28;20033;-91
2021/03/06 09:36:29;;;;;;;2.97;2.05;;;7.30;52.90;;;;;;5034984;28;20049;-91
2021/03/06 09:38:57;;;;;;;2.30;1.73;;;7.40;52.80;;;;;;5038178;28;20030;-91
2021/03/06 09:41:27;;;;;;;6.00;2.00;;;7.40;52.20;;;;;;5035312;28;20045;-91
2021/03/06 09:43:55;;;;;;;1.65;1.50;;;7.30;51.90;;;;;;5035002;28;20040;-89
2021/03/06 09:46:26;;;;;;;1.73;1.63;;;7.40;52.10;;;;;;5034264;28;20026;-92
2021/03/06 09:49:14;;;;;;;2.40;1.80;;;7.50;52.40;;;;;;5034640;28;20056;-92
2021/03/06 09:52:00;;;;;;;2.45;1.80;;;7.50;52.20;;;;;;5035109;28;20083;-92
2021/03/06 09:54:27;;;;;;;2.17;1.88;;;7.60;52.20;;;;;;5037178;28;20025;-89
2021/03/06 09:57:02;;;;;;;4.40;1.90;;;7.50;52.10;;;;;;5032387;28;20075;-90
2021/03/06 09:59:34;;;;;;;2.85;1.58;;;7.40;51.70;;;;;;5014135;28;20022;-91
2021/03/06 10:02:11;;;;;;;1.65;1.55;;;7.50;51.90;;;;;;5035353;28;20018;-91
2021/03/06 10:04:37;;;;;;;2.95;1.60;;;7.50;51.70;;;;;;5037079;28;20037;-92
2021/03/06 10:07:10;;;;;;;1.73;1.63;;;7.50;51.70;;;;;;5036828;28;20464;-91
2021/03/06 10:09:36;;;;;;;2.40;1.88;;;7.50;51.90;;;;;;5038710;28;20057;-92
2021/03/06 10:12:05;;;;;;;1.65;1.55;;;7.60;52.30;;;;;;5034121;28;20433;-89
2021/03/06 10:14:31;;;;;;;2.53;1.58;;;7.70;51.60;;;;;;5033956;28;20021;-89
2021/03/06 10:17:00;;;;;;;2.13;1.92;;;7.70;51.40;;;;;;5032833;28;20450;-89
2021/03/06 10:19:30;;;;;;;1.92;1.50;;;7.70;51.00;;;;;;5034553;28;20076;-89
2021/03/06 10:22:05;;;;;;;3.00;1.52;;;7.70;51.30;;;;;;5033383;28;20041;-91
2021/03/06 10:24:49;;;;;;;2.70;2.00;;;7.80;51.60;;;;;;5032673;28;20029;-89
2021/03/06 10:27:15;;;;;;;3.22;1.88;;;7.90;51.70;;;;;;5035088;28;20032;-91
2021/03/06 10:29:43;;;;;;;2.67;1.80;;;8.00;51.20;;;;;;5019913;28;20022;-90
2021/03/06 10:32:09;;;;;;;2.50;1.77;;;8.00;50.90;;;;;;5016298;28;20025;-89
2021/03/06 10:34:36;;;;;;;2.05;1.60;;;8.00;50.30;;;;;;5032550;28;20036;-88
2021/03/06 10:37:10;;;;;;;3.00;1.60;;;7.90;50.60;;;;;;5035298;28;20021;-88
2021/03/06 10:39:55;;;;;;;2.75;1.70;;;7.90;50.40;;;;;;5046269;23;20068;-70
2021/03/06 10:42:40;;;;;;;3.45;1.50;;;8.00;51.10;;;;;;5008656;28;20033;-70
2021/03/06 10:45:21;;;;;;;2.22;1.40;;;8.00;50.80;;;;;;5022694;28;20076;-70
2021/03/06 10:47:53;;;;;;;1.90;1.50;;;7.90;50.70;;;;;;5006314;28;20343;-71
2021/03/06 10:50:30;;;;;;;1.53;1.43;;;7.90;51.00;;;;;;5015072;28;20478;-68
2021/03/06 10:53:18;;;;;;;2.10;1.60;;;7.90;50.70;;;;;;5015689;28;20279;-67
2021/03/06 10:55:49;;;;;;;3.47;1.67;;;7.80;50.40;;;;;;5014085;28;20032;-69
2021/03/06 10:58:15;;;;;;;2.08;1.60;;;7.80;50.50;;;;;;5005690;28;20030;-67
2021/03/06 11:00:44;;;;;;;1.67;1.45;;;7.70;50.70;;;;;;5004948;28;20433;-65
2021/03/06 11:03:11;;;;;;;2.03;1.52;;;7.60;50.30;;;;;;5009128;28;20029;-67
2021/03/06 11:05:38;;;;;;;2.72;1.52;;;7.50;50.70;;;;;;5012603;28;20034;-66
2021/03/06 11:08:13;;;;;;;2.22;1.70;;;7.50;50.70;;;;;;5015415;28;20049;-67
2021/03/06 11:10:41;;;;;;;2.45;1.52;;;7.40;50.70;;;;;;5007101;28;20048;-65
2021/03/06 11:13:06;;;;;;;1.60;1.50;;;7.40;50.60;;;;;;5009745;28;20117;-65
2021/03/06 11:15:33;;;;;;;2.05;1.80;;;7.30;50.00;;;;;;5014610;28;20502;-66
2021/03/06 11:18:01;;;;;;;3.03;1.58;;;7.30;50.30;;;;;;5013595;28;20040;-65
2021/03/06 11:20:29;;;;;;;2.72;1.55;;;7.30;50.50;;;;;;5014531;28;20532;-65
2021/03/06 11:22:55;;;;;;;2.05;1.85;;;7.30;49.90;;;;;;5015144;28;20041;-64
2021/03/06 11:25:22;;;;;;;2.10;1.58;;;7.30;49.90;;;;;;5013252;28;20022;-68
2021/03/06 11:27:57;;;;;;;2.08;1.77;;;7.40;49.70;;;;;;5010308;28;20054;-66
2021/03/06 11:30:25;;;;;;;3.50;1.85;;;7.40;49.30;;;;;;5011463;28;20058;-66
2021/03/06 11:32:52;;;;;;;2.53;1.80;;;7.50;49.50;;;;;;5012253;28;20581;-67
2021/03/06 11:35:19;;;;;;;1.80;1.70;;;7.60;49.00;;;;;;5011085;28;20045;-68
2021/03/06 11:37:45;;;;;;;1.70;1.60;;;7.60;49.10;;;;;;5012227;28;20497;-66
2021/03/06 11:40:13;;;;;;;2.63;1.67;;;7.60;48.90;;;;;;5011701;28;20041;-66
2021/03/06 11:42:39;;;;;;;2.88;2.05;;;7.60;49.30;;;;;;5012003;28;20029;-67
2021/03/06 11:45:07;;;;;;;2.85;1.80;;;7.70;49.30;;;;;;5010512;28;20029;-66
2021/03/06 11:47:33;;;;;;;3.33;1.70;;;7.80;49.40;;;;;;4992239;28;20038;-67
2021/03/06 11:49:59;;;;;;;2.05;1.63;;;7.90;48.80;;;;;;4992508;28;20023;-66
2021/03/06 11:52:25;;;;;;;4.90;1.67;;;7.90;48.70;;;;;;4992251;28;20026;-67
2021/03/06 11:54:51;;;;;;;1.98;1.73;;;8.00;48.70;;;;;;4991396;28;20026;-67
2021/03/06 11:57:16;;;;;;;1.73;1.52;;;8.10;48.40;;;;;;5011118;28;20080;-67
2021/03/06 11:59:42;;;;;;;2.15;1.50;;;8.10;48.80;;;;;;5007724;28;20087;-67
2021/03/06 12:02:08;;;;;;;4.82;1.70;;;8.30;49.00;;;;;;5011286;28;20034;-67
2021/03/06 12:04:34;;;;;;;1.50;1.40;;;8.50;48.50;;;;;;5002831;28;20073;-67
2021/03/06 12:06:59;;;;;;;2.95;1.35;;;8.50;48.20;;;;;;5011213;28;20133;-67
2021/03/06 12:09:26;;;;;;;1.83;1.70;;;8.60;47.90;;;;;;5011632;28;20396;-67
2021/03/06 12:11:51;;;;;;;1.60;1.50;;;8.50;47.70;;;;;;5011138;28;20605;-66
2021/03/06 12:14:17;;;;;;;3.08;1.85;;;8.60;48.30;;;;;;5010256;28;20042;-67
2021/03/06 12:16:42;;;;;;;2.90;1.60;;;8.50;47.50;;;;;;5010763;28;20565;-67
2021/03/06 12:19:08;;;;;;;2.80;1.50;;;8.60;47.40;;;;;;5012354;28;20498;-67
2021/03/06 12:21:34;;;;;;;3.03;2.08;;;8.60;47.60;;;;;;5010370;28;20387;-66
2021/03/06 12:24:00;;;;;;;1.30;1.20;;;8.60;47.20;;;;;;5006216;28;20346;-66
2021/03/06 12:26:25;;;;;;;2.08;1.73;;;8.60;47.10;;;;;;5001821;28;20042;-66
2021/03/06 12:28:52;;;;;;;1.70;1.60;;;8.60;47.40;;;;;;5005859;28;20041;-67
2021/03/06 12:31:17;;;;;;;3.55;1.90;;;8.70;47.90;;;;;;5005624;28;20552;-66
2021/03/06 12:33:43;;;;;;;2.72;1.60;;;8.70;47.20;;;;;;5011054;28;20034;-66
2021/03/06 12:36:09;;;;;;;2.08;1.48;;;8.80;47.40;;;;;;5007927;28;20088;-67
2021/03/06 12:38:34;;;;;;;1.90;1.77;;;8.80;46.90;;;;;;4999775;28;20026;-68
2021/03/06 12:41:01;;;;;;;3.05;1.58;;;8.80;46.60;;;;;;4991654;28;20042;-68
2021/03/06 12:43:27;;;;;;;1.80;1.70;;;8.80;46.80;;;;;;4992084;28;20084;-67
2021/03/06 12:45:53;;;;;;;2.55;1.88;;;8.90;46.80;;;;;;5010245;28;20124;-67
2021/03/06 12:48:18;;;;;;;1.70;1.60;;;9.00;47.10;;;;;;5010693;28;20022;-66
2021/03/06 12:50:44;;;;;;;2.22;1.67;;;9.10;46.90;;;;;;5011152;28;20034;-67
2021/03/06 12:53:10;;;;;;;3.13;1.70;;;9.20;46.60;;;;;;5010870;28;20113;-66
2021/03/06 12:55:35;;;;;;;2.42;1.55;;;9.20;45.90;;;;;;5010128;28;20022;-67
2021/03/06 12:58:01;;;;;;;2.20;1.60;;;9.20;45.70;;;;;;5004865;28;20113;-67
2021/03/06 13:00:27;;;;;;;1.40;1.30;;;9.10;45.60;;;;;;5011082;28;20030;-67
2021/03/06 13:02:53;;;;;;;2.03;1.83;;;9.10;45.20;;;;;;5010953;28;20041;-67
2021/03/06 13:05:18;;;;;;;1.65;1.55;;;9.10;45.50;;;;;;5010205;28;20056;-67
2021/03/06 13:07:44;;;;;;;1.70;1.60;;;9.20;45.70;;;;;;5010832;28;20096;-67
2021/03/06 13:10:10;;;;;;;3.45;1.95;;;9.20;45.30;;;;;;5011217;28;20117;-66
2021/03/06 13:12:35;;;;;;;1.83;1.55;;;9.30;45.40;;;;;;5010729;28;20029;-68